Time;durP1;ratioP1;P1;durP2;ratioP2;P2;SDS_P1;SDS_P2;PMS_P1;PMS_P2;Temp;Humidity;BMP_temperature;BMP_pressure;BME280_temperature;BME280_humidity;BME280_pressure;Samples;Min_cycle;Max_cycle;Signal;HPM_P1;HPM_P2
2023/12/09 00:00:47;;;;;;;1999.90;999.90;;;8.10;99.90;;;;;;5084658;28;20451;-81
2023/12/09 00:03:13;;;;;;;1999.90;999.90;;;8.10;99.90;;;;;;5092995;28;20087;-80
2023/12/09 00:05:38;;;;;;;1999.90;999.90;;;8.10;99.90;;;;;;5093342;28;20043;-81
2023/12/09 00:08:04;;;;;;;1999.90;999.90;;;8.10;99.90;;;;;;5110099;28;20082;-81
2023/12/09 00:10:30;;;;;;;1999.90;999.90;;;8.20;99.90;;;;;;5092252;28;20040;-81
2023/12/09 00:12:56;;;;;;;1999.90;999.90;;;8.20;99.90;;;;;;5073870;28;20039;-81
2023/12/09 00:15:21;;;;;;;1999.90;999.90;;;8.20;99.90;;;;;;5103177;27;20067;-80
2023/12/09 00:17:47;;;;;;;1999.90;999.90;;;8.20;99.90;;;;;;5072791;28;20483;-80
2023/12/09 00:20:12;;;;;;;1999.90;999.90;;;8.10;99.90;;;;;;5067732;28;20123;-81
2023/12/09 00:22:38;;;;;;;1999.90;999.90;;;8.20;99.90;;;;;;5088132;28;20472;-81
2023/12/09 00:25:06;;;;;;;1999.90;999.90;;;8.10;99.90;;;;;;5090763;28;20048;-81
2023/12/09 00:27:34;;;;;;;1999.90;999.90;;;8.10;99.90;;;;;;5110496;28;20148;-80
2023/12/09 00:30:00;;;;;;;1999.90;999.90;;;8.10;99.90;;;;;;5111357;28;20043;-81
2023/12/09 00:32:26;;;;;;;1999.90;999.90;;;8.10;99.90;;;;;;5070767;28;20048;-81
2023/12/09 00:34:51;;;;;;;1999.90;999.90;;;8.20;99.90;;;;;;5073979;27;20047;-81
2023/12/09 00:37:17;;;;;;;1999.90;999.90;;;8.10;99.90;;;;;;5092096;28;20158;-81
2023/12/09 00:39:42;;;;;;;1999.90;999.90;;;8.10;99.90;;;;;;5090895;28;20039;-81
2023/12/09 00:42:10;;;;;;;1999.90;999.90;;;8.10;99.90;;;;;;5110011;28;20116;-81
2023/12/09 00:44:35;;;;;;;1999.90;999.90;;;8.10;99.90;;;;;;5093241;27;20077;-81
2023/12/09 00:47:01;;;;;;;1999.90;999.90;;;8.10;99.90;;;;;;5094119;28;20035;-81
2023/12/09 00:49:26;;;;;;;1999.90;999.90;;;8.10;99.90;;;;;;5066518;28;20753;-80
2023/12/09 00:51:52;;;;;;;1999.90;999.90;;;8.20;99.90;;;;;;5091978;28;20521;-81
2023/12/09 00:54:18;;;;;;;1999.90;999.90;;;8.10;99.90;;;;;;5109638;28;20039;-81
2023/12/09 00:56:43;;;;;;;1999.90;999.90;;;8.20;99.90;;;;;;5095709;28;20043;-80
2023/12/09 00:59:09;;;;;;;1999.90;999.90;;;8.20;99.90;;;;;;5080713;28;20067;-80
2023/12/09 01:01:35;;;;;;;1999.90;999.90;;;8.20;99.90;;;;;;5108569;28;20179;-81
2023/12/09 01:04:01;;;;;;;1999.90;999.90;;;8.20;99.90;;;;;;5089818;28;20027;-81
2023/12/09 01:06:28;;;;;;;1999.90;999.90;;;8.20;99.90;;;;;;5107163;28;20043;-81
2023/12/09 01:08:54;;;;;;;1999.90;999.90;;;8.20;99.90;;;;;;5088098;28;20161;-81
2023/12/09 01:11:19;;;;;;;1999.90;999.90;;;8.20;99.90;;;;;;5068819;28;20110;-81
2023/12/09 01:13:45;;;;;;;1999.90;999.90;;;8.20;99.90;;;;;;5107319;28;20031;-80
2023/12/09 01:16:10;;;;;;;1999.90;999.90;;;8.20;99.90;;;;;;5095737;28;20088;-81
2023/12/09 01:18:39;;;;;;;1999.90;999.90;;;8.30;99.90;;;;;;5089547;28;20058;-80
2023/12/09 01:21:05;;;;;;;1999.90;999.90;;;8.20;99.90;;;;;;5086112;28;20044;-81
2023/12/09 01:23:30;;;;;;;1999.90;999.90;;;8.20;99.90;;;;;;5068981;28;20097;-81
2023/12/09 01:25:56;;;;;;;1999.90;999.90;;;8.20;99.90;;;;;;5091391;28;20380;-80
2023/12/09 01:28:22;;;;;;;1999.90;999.90;;;8.20;99.90;;;;;;5075655;28;20036;-81
2023/12/09 01:30:48;;;;;;;1999.90;999.90;;;8.20;99.90;;;;;;5073759;28;20036;-81
2023/12/09 01:33:13;;;;;;;1999.90;999.90;;;8.20;99.90;;;;;;5108212;28;20032;-80
2023/12/09 01:35:39;;;;;;;1999.90;999.90;;;8.20;99.90;;;;;;5068313;28;20039;-80
2023/12/09 01:38:04;;;;;;;1999.90;999.90;;;8.20;99.90;;;;;;5090862;28;20063;-81
2023/12/09 01:40:30;;;;;;;1999.90;999.90;;;8.20;99.90;;;;;;5088846;28;20515;-80
2023/12/09 01:42:56;;;;;;;1999.90;999.90;;;8.20;99.90;;;;;;5090290;28;20127;-80
2023/12/09 01:45:21;;;;;;;1999.90;999.90;;;8.30;99.90;;;;;;5072031;28;20067;-80
2023/12/09 01:47:48;;;;;;;1999.90;999.90;;;8.20;99.90;;;;;;5069232;28;20058;-81
2023/12/09 01:50:15;;;;;;;1999.90;999.90;;;8.20;99.90;;;;;;5092320;28;20042;-80
2023/12/09 01:52:42;;;;;;;1999.90;999.90;;;8.30;99.90;;;;;;5105104;28;20031;-81
2023/12/09 01:55:12;;;;;;;1999.90;999.90;;;8.30;99.90;;;;;;5073602;28;20578;-82
2023/12/09 01:57:38;;;;;;;1999.90;999.90;;;8.30;99.90;;;;;;5102069;28;20047;-81
2023/12/09 02:00:05;;;;;;;1999.90;999.90;;;8.30;99.90;;;;;;5083962;28;20404;-81
2023/12/09 02:02:31;;;;;;;1999.90;999.90;;;8.30;99.90;;;;;;5102774;28;20396;-81
2023/12/09 02:04:59;;;;;;;1999.90;999.90;;;8.30;99.90;;;;;;5072724;28;20044;-81
2023/12/09 02:07:24;;;;;;;1999.90;999.90;;;8.30;99.90;;;;;;5089195;28;20028;-81
2023/12/09 02:09:50;;;;;;;1999.90;999.90;;;8.30;99.90;;;;;;5066764;28;20035;-81
2023/12/09 02:12:29;;;;;;;1999.90;999.90;;;8.30;99.90;;;;;;5071971;28;20044;-80
2023/12/09 02:15:14;;;;;;;1999.90;999.90;;;8.30;99.90;;;;;;5069335;28;20051;-81
2023/12/09 02:17:59;;;;;;;;;;;8.30;99.90;;;;;;5104368;28;20039;-81
2023/12/09 02:20:26;;;;;;;1999.90;999.90;;;8.30;99.90;;;;;;5063762;28;19931;-81
2023/12/09 02:23:08;;;;;;;1999.90;999.90;;;8.30;99.90;;;;;;5064453;28;20384;-81
2023/12/09 02:25:34;;;;;;;1999.90;999.90;;;8.30;99.90;;;;;;5072861;28;20044;-80
2023/12/09 02:28:07;;;;;;;1999.90;999.90;;;8.30;99.90;;;;;;5108647;28;20410;-82
2023/12/09 02:30:43;;;;;;;1999.90;999.90;;;8.30;99.90;;;;;;5076799;28;20039;-80
2023/12/09 02:33:11;;;;;;;1999.90;999.90;;;8.30;99.90;;;;;;5068368;28;20403;-81
2023/12/09 02:35:40;;;;;;;1999.90;999.90;;;8.30;99.90;;;;;;5090253;28;20051;-81
2023/12/09 02:38:06;;;;;;;1999.90;999.90;;;8.30;99.90;;;;;;5071827;28;20130;-80
2023/12/09 02:40:33;;;;;;;1999.90;999.90;;;8.30;99.90;;;;;;5089788;28;20457;-82
2023/12/09 02:42:59;;;;;;;1999.90;999.90;;;8.30;99.90;;;;;;5067596;28;20073;-80
2023/12/09 02:45:25;;;;;;;1999.90;999.90;;;8.30;99.90;;;;;;5073192;28;20047;-81
2023/12/09 02:47:50;;;;;;;1999.90;999.90;;;8.30;99.90;;;;;;5089840;28;20035;-81
2023/12/09 02:50:16;;;;;;;1999.90;999.90;;;8.30;99.90;;;;;;5072763;28;20043;-83
2023/12/09 02:52:42;;;;;;;1999.90;999.90;;;8.30;99.90;;;;;;5086647;28;20404;-82
2023/12/09 02:55:09;;;;;;;1999.90;999.90;;;8.30;99.90;;;;;;5081195;28;20051;-81
2023/12/09 02:57:35;;;;;;;1999.90;999.90;;;8.30;99.90;;;;;;5104619;28;20054;-81
2023/12/09 03:00:00;;;;;;;1999.90;999.90;;;8.30;99.90;;;;;;5072383;28;20043;-81
2023/12/09 03:02:26;;;;;;;1999.90;999.90;;;8.30;99.90;;;;;;5074965;28;20075;-81
2023/12/09 03:04:52;;;;;;;1999.90;999.90;;;8.30;99.90;;;;;;5087754;28;20042;-81
2023/12/09 03:07:20;;;;;;;1999.90;999.90;;;8.30;99.90;;;;;;5106367;28;20042;-83
2023/12/09 03:09:46;;;;;;;1999.90;999.90;;;8.30;99.90;;;;;;5070597;28;20051;-81
2023/12/09 03:12:12;;;;;;;1999.90;999.90;;;8.30;99.90;;;;;;5089009;28;20040;-80
2023/12/09 03:14:38;;;;;;;1999.90;999.90;;;8.30;99.90;;;;;;5082794;28;20503;-80
2023/12/09 03:17:05;;;;;;;1999.90;999.90;;;8.30;99.90;;;;;;5070664;28;20051;-80
2023/12/09 03:19:33;;;;;;;1999.90;999.90;;;8.20;99.90;;;;;;5095636;28;20400;-81
2023/12/09 03:21:59;;;;;;;1999.90;999.90;;;8.20;99.90;;;;;;5069580;28;20039;-81
2023/12/09 03:24:25;;;;;;;1999.90;999.90;;;8.20;99.90;;;;;;5108310;28;20036;-81
2023/12/09 03:26:51;;;;;;;1999.90;999.90;;;8.20;99.90;;;;;;5088859;28;20399;-81
2023/12/09 03:29:17;;;;;;;1999.90;999.90;;;8.20;99.90;;;;;;5105677;28;20464;-81
2023/12/09 03:31:43;;;;;;;1999.90;999.90;;;8.20;99.90;;;;;;5088717;28;20046;-80
2023/12/09 03:34:08;;;;;;;1999.90;999.90;;;8.10;99.90;;;;;;5075742;28;20035;-81
2023/12/09 03:36:34;;;;;;;1999.90;999.90;;;8.10;99.90;;;;;;5064433;28;20052;-80
2023/12/09 03:39:00;;;;;;;1999.90;999.90;;;8.10;99.90;;;;;;5107637;28;20043;-81
2023/12/09 03:41:25;;;;;;;1999.90;999.90;;;8.00;99.90;;;;;;5084472;28;20044;-81
2023/12/09 03:43:51;;;;;;;1999.90;999.90;;;8.00;99.90;;;;;;5089928;27;20500;-82
2023/12/09 03:46:17;;;;;;;1999.90;999.90;;;8.10;99.90;;;;;;5088536;28;20035;-80
2023/12/09 03:48:42;;;;;;;1999.90;999.90;;;8.10;99.90;;;;;;5111722;28;20040;-80
2023/12/09 03:51:08;;;;;;;1999.90;999.90;;;8.00;99.90;;;;;;5111872;28;20089;-81
2023/12/09 03:53:34;;;;;;;1999.90;999.90;;;8.10;99.90;;;;;;5107796;28;20046;-80
2023/12/09 03:55:59;;;;;;;1999.90;999.90;;;8.10;99.90;;;;;;5085405;28;20082;-80
2023/12/09 03:58:25;;;;;;;1999.90;999.90;;;8.10;99.90;;;;;;5092284;28;20045;-80
2023/12/09 04:00:51;;;;;;;1999.90;999.90;;;8.10;99.90;;;;;;5090232;28;20384;-80
2023/12/09 04:03:16;;;;;;;1999.90;999.90;;;8.10;99.90;;;;;;5073866;28;20042;-81
2023/12/09 04:05:42;;;;;;;1999.90;999.90;;;8.00;99.90;;;;;;5069368;28;20448;-80
2023/12/09 04:08:08;;;;;;;1999.90;999.90;;;8.10;99.90;;;;;;5084806;28;20042;-80
2023/12/09 04:10:34;;;;;;;1999.90;999.90;;;8.00;99.90;;;;;;5091074;28;20411;-81
2023/12/09 04:12:59;;;;;;;1999.90;999.90;;;8.00;99.90;;;;;;5093087;28;20039;-80
2023/12/09 04:15:27;;;;;;;1999.90;999.90;;;8.00;99.90;;;;;;5095212;27;20069;-83
2023/12/09 04:17:53;;;;;;;1999.90;999.90;;;8.00;99.90;;;;;;5091577;28;20055;-81
2023/12/09 04:20:19;;;;;;;1999.90;999.90;;;7.90;99.90;;;;;;5075880;28;20050;-81
2023/12/09 04:22:44;;;;;;;1999.90;999.90;;;8.00;99.90;;;;;;5069799;28;20123;-80
2023/12/09 04:25:10;;;;;;;1999.90;999.90;;;8.00;99.90;;;;;;5090327;28;20096;-81
2023/12/09 04:27:36;;;;;;;1999.90;999.90;;;8.00;99.90;;;;;;5083867;27;20036;-80
2023/12/09 04:30:04;;;;;;;1999.90;999.90;;;8.00;99.90;;;;;;5071242;28;20051;-80
2023/12/09 04:32:30;;;;;;;1999.90;999.90;;;8.00;99.90;;;;;;5087215;28;20093;-81
2023/12/09 04:34:57;;;;;;;1999.90;999.90;;;8.00;99.90;;;;;;5089142;28;20471;-81
2023/12/09 04:37:23;;;;;;;1999.90;999.90;;;8.00;99.90;;;;;;5092242;28;20043;-81
2023/12/09 04:39:49;;;;;;;1999.90;999.90;;;8.00;99.90;;;;;;5073975;28;20046;-80
2023/12/09 04:42:15;;;;;;;1999.90;999.90;;;8.00;99.90;;;;;;5065699;28;20056;-81
2023/12/09 04:44:40;;;;;;;1999.90;999.90;;;8.00;99.90;;;;;;5087476;27;20040;-81
2023/12/09 04:47:07;;;;;;;1999.90;999.90;;;8.00;99.90;;;;;;5086481;28;20506;-80
2023/12/09 04:49:33;;;;;;;1999.90;999.90;;;8.00;99.90;;;;;;5109064;28;20047;-81
2023/12/09 04:51:59;;;;;;;1999.90;999.90;;;8.00;99.90;;;;;;5091716;28;20028;-82
2023/12/09 04:54:24;;;;;;;1999.90;999.90;;;8.00;99.90;;;;;;5087763;27;20034;-81
2023/12/09 04:56:50;;;;;;;1999.90;999.90;;;8.00;99.90;;;;;;5089483;28;20043;-81
2023/12/09 04:59:16;;;;;;;1999.90;999.90;;;8.00;99.90;;;;;;5087417;28;20096;-81
2023/12/09 05:01:41;;;;;;;1999.90;999.90;;;8.00;99.90;;;;;;5086438;28;20043;-80
2023/12/09 05:04:10;;;;;;;1999.90;999.90;;;8.00;99.90;;;;;;5069296;28;20050;-81
2023/12/09 05:06:36;;;;;;;1999.90;999.90;;;8.00;99.90;;;;;;5085958;28;20054;-80
2023/12/09 05:09:02;;;;;;;1999.90;999.90;;;8.00;99.90;;;;;;5072932;28;20043;-81
2023/12/09 05:11:28;;;;;;;1999.90;999.90;;;8.00;99.90;;;;;;5110487;28;20043;-80
2023/12/09 05:13:54;;;;;;;1999.90;999.90;;;8.00;99.90;;;;;;5074277;28;20040;-81
2023/12/09 05:16:19;;;;;;;1999.90;999.90;;;8.00;99.90;;;;;;5077634;28;20050;-82
2023/12/09 05:18:45;;;;;;;1999.90;999.90;;;8.00;99.90;;;;;;5081562;28;20159;-82
2023/12/09 05:21:12;;;;;;;1999.90;999.90;;;8.00;99.90;;;;;;5067944;28;20044;-81
2023/12/09 05:23:38;;;;;;;1999.90;999.90;;;8.00;99.90;;;;;;5082711;28;20089;-81
2023/12/09 05:26:03;;;;;;;1999.90;999.90;;;8.00;99.90;;;;;;5087012;28;20500;-82
2023/12/09 05:28:30;;;;;;;1999.90;999.90;;;8.00;99.90;;;;;;5091764;28;20123;-81
2023/12/09 05:30:57;;;;;;;1999.90;999.90;;;8.00;99.90;;;;;;5109313;28;20046;-80
2023/12/09 05:33:23;;;;;;;1999.90;999.90;;;8.00;99.90;;;;;;5104326;28;20521;-82
2023/12/09 05:35:48;;;;;;;1999.90;999.90;;;8.00;99.90;;;;;;5090404;28;20043;-81
2023/12/09 05:38:14;;;;;;;1999.90;999.90;;;8.00;99.90;;;;;;5091893;28;20411;-81
2023/12/09 05:40:40;;;;;;;1999.90;999.90;;;8.00;99.90;;;;;;5074618;28;20078;-81
2023/12/09 05:43:05;;;;;;;1999.90;999.90;;;8.00;99.90;;;;;;5089426;28;20569;-80
2023/12/09 05:45:31;;;;;;;1999.90;999.90;;;8.00;99.90;;;;;;5094148;28;20043;-81
2023/12/09 05:47:57;;;;;;;1999.90;999.90;;;8.00;99.90;;;;;;5077393;28;20035;-80
2023/12/09 05:50:22;;;;;;;1999.90;999.90;;;8.00;99.90;;;;;;5087593;28;20036;-80
2023/12/09 05:52:48;;;;;;;1999.90;999.90;;;8.00;99.90;;;;;;5090971;28;20117;-80
2023/12/09 05:55:17;;;;;;;1999.90;999.90;;;8.00;99.90;;;;;;5087464;28;20043;-81
2023/12/09 05:57:43;;;;;;;1999.90;999.90;;;8.00;99.90;;;;;;5092058;27;20046;-80
2023/12/09 06:00:11;;;;;;;1999.90;999.90;;;8.00;99.90;;;;;;5085351;28;20056;-81
2023/12/09 06:02:38;;;;;;;1999.90;999.90;;;8.00;99.90;;;;;;5086425;28;20071;-81
2023/12/09 06:05:04;;;;;;;1999.90;999.90;;;8.00;99.90;;;;;;5082706;28;20506;-81
2023/12/09 06:07:30;;;;;;;1999.90;999.90;;;7.90;99.90;;;;;;5072730;28;20039;-80
2023/12/09 06:09:56;;;;;;;1999.90;999.90;;;7.90;99.90;;;;;;5091384;28;20545;-81
2023/12/09 06:12:21;;;;;;;1999.90;999.90;;;8.00;99.90;;;;;;5108360;28;20039;-80
2023/12/09 06:14:47;;;;;;;1999.90;999.90;;;7.90;99.90;;;;;;5065929;28;20070;-80
2023/12/09 06:17:13;;;;;;;1999.90;999.90;;;7.90;99.90;;;;;;5072603;28;20031;-80
2023/12/09 06:19:39;;;;;;;1999.90;999.90;;;7.90;99.90;;;;;;5081043;28;20035;-80
2023/12/09 06:22:04;;;;;;;1999.90;999.90;;;7.90;99.90;;;;;;5090104;28;20043;-80
2023/12/09 06:24:30;;;;;;;1999.90;999.90;;;7.90;99.90;;;;;;5073679;28;20036;-81
2023/12/09 06:26:56;;;;;;;1999.90;999.90;;;7.90;99.90;;;;;;5081392;28;20404;-80
2023/12/09 06:29:21;;;;;;;1999.90;999.90;;;7.90;99.90;;;;;;5088162;28;20078;-80
2023/12/09 06:31:47;;;;;;;1999.90;999.90;;;7.90;99.90;;;;;;5072289;28;20062;-81
2023/12/09 06:34:12;;;;;;;1999.90;999.90;;;7.80;99.90;;;;;;5106491;28;20514;-80
2023/12/09 06:36:38;;;;;;;1999.90;999.90;;;7.80;99.90;;;;;;5103113;28;20043;-81
2023/12/09 06:39:04;;;;;;;1999.90;999.90;;;7.80;99.90;;;;;;5068862;28;20095;-81
2023/12/09 06:41:29;;;;;;;1999.90;999.90;;;7.90;99.90;;;;;;5068530;28;20101;-81
2023/12/09 06:43:55;;;;;;;1999.90;999.90;;;7.80;99.90;;;;;;5084699;28;20048;-80
2023/12/09 06:46:20;;;;;;;1999.90;999.90;;;7.80;99.90;;;;;;5100411;28;20502;-81
2023/12/09 06:48:47;;;;;;;1999.90;999.90;;;7.80;99.90;;;;;;5071600;28;20051;-81
2023/12/09 06:51:16;;;;;;;1999.90;999.90;;;7.80;99.90;;;;;;5084759;28;20503;-81
2023/12/09 06:53:42;;;;;;;1999.90;999.90;;;7.80;99.90;;;;;;5072752;28;20503;-80
2023/12/09 06:56:17;;;;;;;1999.90;999.90;;;7.80;99.90;;;;;;5108528;28;20054;-80
2023/12/09 06:58:42;;;;;;;;;;;7.70;99.90;;;;;;5090554;28;20074;-80
2023/12/09 07:01:08;;;;;;;1999.90;999.90;;;7.80;99.90;;;;;;5106514;28;19919;-80
2023/12/09 07:03:33;;;;;;;1999.90;999.90;;;7.70;99.90;;;;;;5063481;28;20043;-80
2023/12/09 07:05:59;;;;;;;1999.90;999.90;;;7.70;99.90;;;;;;5068563;28;20039;-81
2023/12/09 07:08:25;;;;;;;1999.90;999.90;;;7.70;99.90;;;;;;5085040;28;20036;-80
2023/12/09 07:10:51;;;;;;;1999.90;999.90;;;7.70;99.90;;;;;;5088769;28;20036;-81
2023/12/09 07:13:16;;;;;;;1999.90;999.90;;;7.60;99.90;;;;;;5073405;28;20057;-81
2023/12/09 07:15:42;;;;;;;1999.90;999.90;;;7.60;99.90;;;;;;5104447;28;20056;-81
2023/12/09 07:18:07;;;;;;;1999.90;999.90;;;7.60;99.90;;;;;;5075710;28;20043;-81
2023/12/09 07:20:33;;;;;;;1999.90;999.90;;;7.50;99.90;;;;;;5109831;27;20048;-80
2023/12/09 07:22:58;;;;;;;1999.90;999.90;;;7.60;99.90;;;;;;5091455;28;20089;-80
2023/12/09 07:25:24;;;;;;;1999.90;999.90;;;7.60;99.90;;;;;;5111739;28;20400;-80
2023/12/09 07:27:50;;;;;;;1999.90;999.90;;;7.50;99.90;;;;;;5107304;28;20043;-80
2023/12/09 07:30:16;;;;;;;1999.90;999.90;;;7.60;99.90;;;;;;5111786;28;20096;-80
2023/12/09 07:32:42;;;;;;;1999.90;999.90;;;7.50;99.90;;;;;;5075965;28;20040;-80
2023/12/09 07:35:08;;;;;;;1999.90;999.90;;;7.50;99.90;;;;;;5071650;28;20060;-81
2023/12/09 07:37:34;;;;;;;1999.90;999.90;;;7.50;99.90;;;;;;5102946;28;20040;-80
2023/12/09 07:39:59;;;;;;;1999.90;999.90;;;7.50;99.90;;;;;;5091904;28;20043;-80
2023/12/09 07:42:25;;;;;;;1999.90;999.90;;;7.50;99.90;;;;;;5103420;28;20057;-80
2023/12/09 07:44:51;;;;;;;1999.90;999.90;;;7.50;99.90;;;;;;5089791;27;20097;-80
2023/12/09 07:47:16;;;;;;;1999.90;999.90;;;7.50;99.90;;;;;;5077050;28;20046;-81
2023/12/09 07:49:42;;;;;;;1999.90;999.90;;;7.50;99.90;;;;;;5071487;28;20048;-81
2023/12/09 07:52:08;;;;;;;1999.90;999.90;;;7.50;99.90;;;;;;5073077;28;20051;-80
2023/12/09 07:54:33;;;;;;;1999.90;999.90;;;7.40;99.90;;;;;;5069000;28;20076;-80
2023/12/09 07:56:59;;;;;;;1999.90;999.90;;;7.50;99.90;;;;;;5074678;28;20162;-80
2023/12/09 07:59:24;;;;;;;1999.90;999.90;;;7.50;99.90;;;;;;5067546;28;20043;-80
2023/12/09 08:01:50;;;;;;;1999.90;999.90;;;7.50;99.90;;;;;;5106130;28;20558;-80
2023/12/09 08:04:16;;;;;;;1999.90;999.90;;;7.50;99.90;;;;;;5107122;27;20143;-80
2023/12/09 08:06:41;;;;;;;1999.90;999.90;;;7.50;99.90;;;;;;5091361;28;20040;-80
2023/12/09 08:09:07;;;;;;;1999.90;999.90;;;7.50;99.90;;;;;;5089799;28;20468;-80
2023/12/09 08:11:32;;;;;;;1999.90;999.90;;;7.50;99.90;;;;;;5084415;28;20039;-80
2023/12/09 08:13:58;;;;;;;1999.90;999.90;;;7.50;99.90;;;;;;5087233;28;20027;-80
2023/12/09 08:16:23;;;;;;;1999.90;999.90;;;7.50;99.90;;;;;;5082238;28;20043;-81
2023/12/09 08:18:49;;;;;;;1999.90;999.90;;;7.50;99.90;;;;;;5070380;28;20034;-80
2023/12/09 08:21:15;;;;;;;1999.90;999.90;;;7.50;99.90;;;;;;5108740;28;20036;-80
2023/12/09 08:23:41;;;;;;;1999.90;999.90;;;7.50;99.90;;;;;;5069377;28;20036;-79
2023/12/09 08:26:07;;;;;;;1999.90;999.90;;;7.50;99.90;;;;;;5107320;27;20046;-81
2023/12/09 08:28:34;;;;;;;1999.90;999.90;;;7.50;99.90;;;;;;5066791;28;20039;-80
2023/12/09 08:31:00;;;;;;;1999.90;999.90;;;7.50;99.90;;;;;;5086693;28;20039;-80
2023/12/09 08:33:25;;;;;;;1999.90;999.90;;;7.50;99.90;;;;;;5082211;28;20043;-82
2023/12/09 08:35:51;;;;;;;1999.90;999.90;;;7.50;99.90;;;;;;5092370;28;20050;-80
2023/12/09 08:38:16;;;;;;;1999.90;999.90;;;7.50;99.90;;;;;;5068138;28;20570;-80
2023/12/09 08:40:42;;;;;;;1999.90;999.90;;;7.50;99.90;;;;;;5107544;27;20051;-80
2023/12/09 08:43:08;;;;;;;1999.90;999.90;;;7.50;99.90;;;;;;5105496;28;20451;-80
2023/12/09 08:45:34;;;;;;;1999.90;999.90;;;7.50;99.90;;;;;;5072597;27;20051;-80
2023/12/09 08:48:00;;;;;;;1999.90;999.90;;;7.50;99.90;;;;;;5113682;27;20047;-81
2023/12/09 08:50:25;;;;;;;1999.90;999.90;;;7.50;99.90;;;;;;5069250;28;20391;-81
2023/12/09 08:52:54;;;;;;;1999.90;999.90;;;7.50;99.90;;;;;;5091250;28;20043;-81
2023/12/09 08:55:20;;;;;;;1999.90;999.90;;;7.50;99.90;;;;;;5091567;28;20215;-80
2023/12/09 08:57:45;;;;;;;1999.90;999.90;;;7.50;99.90;;;;;;5083463;28;20133;-79
2023/12/09 09:00:11;;;;;;;1999.90;999.90;;;7.50;99.90;;;;;;5089971;28;20051;-80
2023/12/09 09:02:37;;;;;;;1999.90;999.90;;;7.50;99.90;;;;;;5068279;28;20043;-80
2023/12/09 09:05:03;;;;;;;1999.90;999.90;;;7.50;99.90;;;;;;5088539;28;20035;-80
2023/12/09 09:07:29;;;;;;;1999.90;999.90;;;7.50;99.90;;;;;;5087969;28;20059;-80
2023/12/09 09:09:55;;;;;;;1999.90;999.90;;;7.50;99.90;;;;;;5068263;28;20044;-80
2023/12/09 09:12:20;;;;;;;1999.90;999.90;;;7.50;99.90;;;;;;5064102;28;20443;-80
2023/12/09 09:14:46;;;;;;;1999.90;999.90;;;7.60;99.90;;;;;;5091060;28;20084;-80
2023/12/09 09:17:12;;;;;;;1999.90;999.90;;;7.60;99.90;;;;;;5070046;28;20108;-80
2023/12/09 09:19:37;;;;;;;1999.90;999.90;;;7.60;99.90;;;;;;5094311;28;20043;-80
2023/12/09 09:22:03;;;;;;;1999.90;999.90;;;7.70;99.90;;;;;;5075293;28;20044;-80
2023/12/09 09:24:29;;;;;;;1999.90;999.90;;;7.60;99.90;;;;;;5073862;28;20035;-80
2023/12/09 09:26:54;;;;;;;1999.90;999.90;;;7.70;99.90;;;;;;5091067;28;20123;-80
2023/12/09 09:29:20;;;;;;;1999.90;999.90;;;7.70;99.90;;;;;;5081106;28;20078;-80
2023/12/09 09:31:45;;;;;;;1999.90;999.90;;;7.70;99.90;;;;;;5091352;28;20532;-80
2023/12/09 09:34:11;;;;;;;1999.90;999.90;;;7.70;99.90;;;;;;5099241;28;20057;-80
2023/12/09 09:36:36;;;;;;;1999.90;999.90;;;7.70;99.90;;;;;;5084444;28;20499;-80
2023/12/09 09:39:03;;;;;;;1999.90;999.90;;;7.80;99.90;;;;;;5105947;28;20043;-80
2023/12/09 09:41:35;;;;;;;1999.90;999.90;;;7.80;99.90;;;;;;5090953;28;20055;-80
2023/12/09 09:44:10;;;;;;;1999.90;999.90;;;7.80;99.90;;;;;;5088431;28;20102;-80
2023/12/09 09:46:37;;;;;;;;;;;7.80;99.90;;;;;;5117397;27;20047;-80
2023/12/09 09:49:04;;;;;;;1999.90;999.90;;;7.80;99.90;;;;;;5109581;28;19955;-80
2023/12/09 09:51:31;;;;;;;1999.90;999.90;;;7.80;99.90;;;;;;5091167;28;20040;-80
2023/12/09 09:54:26;;;;;;;1999.90;999.90;;;7.80;99.90;;;;;;5083427;28;20035;-81
2023/12/09 09:56:52;;;;;;;1999.90;999.90;;;7.80;99.90;;;;;;5090756;27;20044;-80
2023/12/09 09:59:17;;;;;;;1999.90;999.90;;;7.80;99.90;;;;;;5084990;28;20036;-80
2023/12/09 10:01:44;;;;;;;1999.90;999.90;;;7.80;99.90;;;;;;5073135;28;20580;-80
2023/12/09 10:04:10;;;;;;;1999.90;999.90;;;7.80;99.90;;;;;;5091110;28;20463;-80
2023/12/09 10:06:36;;;;;;;1999.90;999.90;;;7.80;99.90;;;;;;5090217;28;20035;-80
2023/12/09 10:09:03;;;;;;;1999.90;999.90;;;7.80;99.90;;;;;;5087669;28;20047;-80
2023/12/09 10:11:29;;;;;;;1999.90;999.90;;;7.70;99.90;;;;;;5062754;28;20499;-80
2023/12/09 10:13:55;;;;;;;1999.90;999.90;;;7.70;99.90;;;;;;5080508;28;20052;-80
2023/12/09 10:16:21;;;;;;;1999.90;999.90;;;7.70;99.90;;;;;;5074071;28;20579;-80
2023/12/09 10:18:47;;;;;;;1999.90;999.90;;;7.70;99.90;;;;;;5082657;28;20071;-80
2023/12/09 10:21:14;;;;;;;1999.90;999.90;;;7.80;99.90;;;;;;5101708;28;20093;-80
2023/12/09 10:23:40;;;;;;;1999.90;999.90;;;7.80;99.90;;;;;;5062520;28;20055;-79
2023/12/09 10:26:07;;;;;;;1999.90;999.90;;;7.80;99.90;;;;;;5084671;28;20139;-80
2023/12/09 10:28:33;;;;;;;1999.90;999.90;;;7.80;99.90;;;;;;5096259;28;20082;-80
2023/12/09 10:31:01;;;;;;;1999.90;999.90;;;7.90;99.90;;;;;;5087074;28;20039;-80
2023/12/09 10:33:30;;;;;;;1999.90;999.90;;;7.90;99.90;;;;;;5090921;28;20051;-79
2023/12/09 10:35:57;;;;;;;1999.90;999.90;;;7.90;99.90;;;;;;5084535;28;20067;-80
2023/12/09 10:38:23;;;;;;;1999.90;999.90;;;7.90;99.90;;;;;;5090379;28;20051;-79
2023/12/09 10:40:53;;;;;;;1999.90;999.90;;;7.90;99.90;;;;;;5080328;28;20399;-80
2023/12/09 10:43:20;;;;;;;1999.90;999.90;;;8.00;99.90;;;;;;5082426;28;20132;-80
2023/12/09 10:45:46;;;;;;;1999.90;999.90;;;8.00;99.90;;;;;;5105007;28;20562;-80
2023/12/09 10:48:11;;;;;;;1999.90;999.90;;;8.00;99.90;;;;;;5072676;28;20127;-81
2023/12/09 10:50:38;;;;;;;1999.90;999.90;;;8.10;99.90;;;;;;5088697;28;20100;-81
2023/12/09 10:53:04;;;;;;;1999.90;999.90;;;8.10;99.90;;;;;;5087087;28;20042;-80
2023/12/09 10:55:30;;;;;;;1999.90;999.90;;;8.10;99.90;;;;;;5101884;28;20506;-80
2023/12/09 10:57:57;;;;;;;1999.90;999.90;;;8.10;99.90;;;;;;5088408;27;20088;-80
2023/12/09 11:00:24;;;;;;;1999.90;999.90;;;8.10;99.90;;;;;;5107376;27;20035;-79
2023/12/09 11:02:52;;;;;;;1999.90;999.90;;;8.10;99.90;;;;;;5106637;28;20071;-80
2023/12/09 11:05:19;;;;;;;1999.90;999.90;;;8.10;99.90;;;;;;5076370;27;20106;-80
2023/12/09 11:07:47;;;;;;;1999.90;999.90;;;8.20;99.90;;;;;;5069336;27;20050;-81
2023/12/09 11:10:13;;;;;;;1999.90;999.90;;;8.20;99.90;;;;;;5070690;28;20384;-80
2023/12/09 11:12:42;;;;;;;1999.90;999.90;;;8.20;99.90;;;;;;5100503;28;20035;-80
2023/12/09 11:15:13;;;;;;;1999.90;999.90;;;8.20;99.90;;;;;;5074117;28;20411;-81
2023/12/09 11:17:41;;;;;;;1999.90;999.90;;;8.20;99.90;;;;;;5093855;28;20461;-80
2023/12/09 11:20:13;;;;;;;1999.90;999.90;;;8.20;99.90;;;;;;5105929;28;20126;-80
2023/12/09 11:22:44;;;;;;;1999.90;999.90;;;8.20;99.90;;;;;;5072818;28;20130;-79
2023/12/09 11:25:21;;;;;;;1999.90;999.90;;;8.20;99.90;;;;;;5104870;28;20825;-80
2023/12/09 11:27:50;;;;;;;1999.90;999.90;;;8.10;99.90;;;;;;5064806;28;20028;-81
2023/12/09 11:30:34;;;;;;;1999.90;999.90;;;8.10;99.90;;;;;;5082447;28;20665;-80
2023/12/09 11:33:00;;;;;;;1999.90;999.90;;;8.20;99.90;;;;;;5081477;27;20035;-79
2023/12/09 11:35:27;;;;;;;1999.90;999.90;;;8.10;99.90;;;;;;5074842;27;20352;-79
2023/12/09 11:37:54;;;;;;;1999.90;999.90;;;8.10;99.90;;;;;;5067012;28;20078;-79
2023/12/09 11:40:21;;;;;;;1999.90;999.90;;;8.20;99.90;;;;;;5068743;28;20051;-79
2023/12/09 11:42:49;;;;;;;1999.90;999.90;;;8.20;99.90;;;;;;5066598;28;20173;-79
2023/12/09 11:45:15;;;;;;;1999.90;999.90;;;8.20;99.90;;;;;;5078258;27;20054;-80
2023/12/09 11:47:41;;;;;;;1999.90;999.90;;;8.20;99.90;;;;;;5087273;27;20035;-80
2023/12/09 11:50:08;;;;;;;1999.90;999.90;;;8.30;99.90;;;;;;5071139;28;20042;-79
2023/12/09 11:52:34;;;;;;;1999.90;999.90;;;8.30;99.90;;;;;;5091268;28;20957;-80
2023/12/09 11:55:10;;;;;;;1999.90;999.90;;;8.30;99.90;;;;;;5105338;27;21457;-79
2023/12/09 11:57:37;;;;;;;1999.90;999.90;;;8.30;99.90;;;;;;5071785;28;20040;-79
2023/12/09 12:00:11;;;;;;;1999.90;999.90;;;8.20;99.90;;;;;;5067941;28;20044;-79
2023/12/09 12:02:38;;;;;;;1999.90;999.90;;;8.20;99.90;;;;;;5067243;28;20040;-79
2023/12/09 12:05:05;;;;;;;1999.90;999.90;;;8.20;99.90;;;;;;5074098;28;20075;-79